Strona główna
METAR-TAF:

METAR-TAF

Lotnisko :

Port lotniczy Chartum

Chartum, Sudan

Szerokość geograficzna: 15-36N, Długość geograficzna: 032-33E, wysokość: 382 m

Aktualna obserwacja pogody

Raport powstał 52 minut temu, godzina 22:00 UTC
Wiatr 4 kt od północ
Temperatura 31°C
Wilgotność 19%
Ciśnienie 1009 hPa
Widzialność 10 km lub więcej
Brak chmur poniżej 1500 m i brak chmur cumulonimbus

METAR: HSSS 062200Z 36004KT CAVOK 31/05 Q1009 NOSIG

czas: 00:52 (22:52 UTC)

Prognoza

Raport powstał 5 godziny i 52 minut temu, godzina 17:00 UTC
Prognoza ważna od 06 godzina 18 UTC do 07 godzina 24 UTC
Wiatr 8 kt od północ w porywach dochodzący do 18 kt
Widzialność 10 km lub więcej
Brak chmur poniżej 1500 m i brak chmur cumulonimbus
Przejściowo
od 07 godzina 03 UTC do 07 godzina 12 UTC
Wiatr 12 kt od północno-północny wschód w porywach dochodzący do 22 kt

TAF: HSSS 061700Z 0618/0724 36008G18KT CAVOK TEMPO 0703/0712 03012G22KT

Obserwacja i prognoza pogody dla ponad 4000 lotnisk (raport METAR i TAF).

Dostępne stacje oznaczono żółtymi i czerwonymi punktami na mapie.

Najedź kursorem aby zobaczyć nazwę stacji.

Kliknij aby zobaczyć obserwacje i prognozy pogody.

Aby zmienić mapę: kliknij na zielony przycisk z czarnym krzyżykiem, aby powiększyć; na zielony przycisk z myślnikiem, aby pomniejszyć; na zielone strzałki, aby przejść do map sąsiednich.


METAR-TAF: